Wetterstation Vordersexau
Wetterdaten: Woche 01.01.18 - 07.01.18 (KW1)
Datum Zeit Temp. A. Feuchte A. Luftdruck Regen Wind Richtung Taupunkt Windchill Windben
01.01.2018 00:00 10,9 C 72 % 1007,2 hPa 0,0 l/m 18,1 km/h SW 6,1 C 5,1 C 10,1 km/h
01.01.2018 01:00 7,9 C 83 % 1008,2 hPa 0,5 l/m 7,1 km/h S-SW 5,2 C 7,3 C 4,0 km/h
01.01.2018 02:00 7,9 C 84 % 1008,5 hPa 0,5 l/m 22,7 km/h SW 5,4 C -0,3 C 12,6 km/h
01.01.2018 03:00 7,5 C 79 % 1009,4 hPa 0,0 l/m 21,4 km/h S-SW 4,1 C -0,4 C 11,9 km/h
01.01.2018 04:00 7,6 C 80 % 1009,5 hPa 0,0 l/m 22,0 km/h W-SW 4,4 C -0,5 C 12,2 km/h
01.01.2018 05:00 7,9 C 79 % 1009,7 hPa 0,0 l/m 22,0 km/h SW 4,5 C -0,1 C 12,2 km/h
01.01.2018 06:00 6,9 C 82 % 1010,3 hPa 0,0 l/m 13,6 km/h W-SW 4,0 C 2,1 C 7,6 km/h
01.01.2018 07:00 6,9 C 81 % 1011,0 hPa 0,0 l/m 24,6 km/h W 3,9 C -2,2 C 13,7 km/h
01.01.2018 08:00 6,8 C 82 % 1011,7 hPa 0,0 l/m 21,4 km/h S-SW 3,9 C -1,3 C 11,9 km/h
01.01.2018 09:00 7,4 C 77 % 1011,7 hPa 0,0 l/m 20,7 km/h SW 3,6 C -0,3 C 11,5 km/h
01.01.2018 10:00 9,4 C 75 % 1011,4 hPa 0,0 l/m 20,1 km/h W-SW 5,2 C 2,5 C 11,2 km/h
01.01.2018 11:00 9,9 C 66 % 1009,8 hPa 0,0 l/m 43,4 km/h W-SW 3,9 C -1,7 C 24,1 km/h
01.01.2018 12:00 10,5 C 62 % 1007,5 hPa 0,0 l/m 22,7 km/h W-SW 3,5 C 3,1 C 12,6 km/h
01.01.2018 13:00 9,4 C 62 % 1005,4 hPa 0,0 l/m 15,6 km/h W 2,5 C 4,2 C 8,6 km/h
01.01.2018 14:00 9,1 C 64 % 1003,7 hPa 0,0 l/m 0,0 km/h S-SW 2,7 C 9,1 C 0,0 km/h
01.01.2018 15:00 8,9 C 60 % 1002,1 hPa 0,0 l/m 6,5 km/h SW 1,6 C 8,9 C 3,6 km/h
01.01.2018 16:00 9,1 C 58 % 1001,0 hPa 0,0 l/m 48,6 km/h S-SW 1,3 C -3,5 C 27,0 km/h
01.01.2018 17:00 8,4 C 68 % 999,6 hPa 0,0 l/m 17,5 km/h W-SW 2,8 C 2,1 C 9,7 km/h
01.01.2018 18:00 8,2 C 73 % 1000,6 hPa 0,0 l/m 29,2 km/h S 3,7 C -1,7 C 16,2 km/h
01.01.2018 19:00 8,3 C 73 % 1000,5 hPa 0,0 l/m 23,3 km/h S-SW 3,8 C 0,0 C 13,0 km/h
01.01.2018 20:00 7,6 C 78 % 1001,5 hPa 0,0 l/m 34,3 km/h W 4,0 C -3,6 C 19,1 km/h
01.01.2018 21:00 7,6 C 79 % 1002,5 hPa 0,0 l/m 27,9 km/h W-SW 4,2 C -2,2 C 15,5 km/h
01.01.2018 22:00 6,4 C 84 % 1005,2 hPa 0,0 l/m 31,8 km/h W-SW 3,9 C -4,8 C 17,6 km/h
01.01.2018 23:00 6,3 C 84 % 1007,2 hPa 0,5 l/m 7,1 km/h W-SW 3,8 C 5,7 C 4,0 km/h
02.01.2018 00:00 6,4 C 80 % 1008,5 hPa 0,0 l/m 4,5 km/h S-SW 3,2 C 6,4 C 2,5 km/h
02.01.2018 01:00 6,1 C 80 % 1008,9 hPa 0,0 l/m 22,7 km/h W-SW 2,9 C -2,7 C 12,6 km/h
02.01.2018 02:00 5,0 C 85 % 1009,4 hPa 0,5 l/m 27,9 km/h SW 2,7 C -5,8 C 15,5 km/h
02.01.2018 03:00 5,3 C 83 % 1010,3 hPa 0,0 l/m 0,6 km/h SW 2,7 C 5,3 C 0,4 km/h
02.01.2018 04:00 5,8 C 82 % 1010,2 hPa 0,0 l/m 39,5 km/h W-SW 3,0 C -7,2 C 22,0 km/h
02.01.2018 05:00 5,3 C 84 % 1011,1 hPa 0,0 l/m 18,1 km/h S-SW 2,8 C -2,0 C 10,1 km/h
02.01.2018 06:00 5,1 C 85 % 1011,9 hPa 0,0 l/m 14,3 km/h S-SW 2,8 C -0,4 C 7,9 km/h
02.01.2018 07:00 5,4 C 84 % 1012,6 hPa 0,0 l/m 16,8 km/h W-SW 2,9 C -1,3 C 9,4 km/h
02.01.2018 08:00 5,3 C 80 % 1013,7 hPa 0,0 l/m 27,2 km/h W 2,1 C -5,2 C 15,1 km/h
02.01.2018 09:00 5,6 C 80 % 1015,3 hPa 0,0 l/m 14,3 km/h W 2,4 C 0,2 C 7,9 km/h
02.01.2018 10:00 5,9 C 82 % 1015,9 hPa 0,0 l/m 9,1 km/h SW 3,1 C 3,7 C 5,0 km/h
02.01.2018 11:00 7,4 C 80 % 1015,6 hPa 0,0 l/m 19,4 km/h W-SW 4,2 C 0,1 C 10,8 km/h
02.01.2018 12:00 8,8 C 74 % 1015,2 hPa 0,0 l/m 22,7 km/h W-SW 4,4 C 0,9 C 12,6 km/h
02.01.2018 13:00 9,8 C 66 % 1014,7 hPa 0,0 l/m 16,8 km/h W 3,8 C 4,2 C 9,4 km/h
02.01.2018 14:00 8,3 C 70 % 1015,4 hPa 0,0 l/m 14,3 km/h SW 3,2 C 3,4 C 7,9 km/h
02.01.2018 15:00 7,3 C 74 % 1015,0 hPa 0,0 l/m 19,4 km/h S-SW 3,0 C 0,0 C 10,8 km/h
02.01.2018 16:00 7,1 C 75 % 1014,4 hPa 0,0 l/m 24,6 km/h SW 3,0 C -2,0 C 13,7 km/h
02.01.2018 17:00 6,9 C 74 % 1014,0 hPa 0,0 l/m 0,0 km/h W 2,6 C 6,9 C 0,0 km/h
02.01.2018 18:00 7,1 C 73 % 1014,3 hPa 0,0 l/m 14,3 km/h W-SW 2,6 C 2,0 C 7,9 km/h
02.01.2018 19:00 6,6 C 76 % 1013,5 hPa 0,0 l/m 14,9 km/h S 2,7 C 1,1 C 8,3 km/h
02.01.2018 20:00 6,5 C 75 % 1012,2 hPa 0,0 l/m 19,4 km/h SW 2,4 C -1,0 C 10,8 km/h
02.01.2018 21:00 6,4 C 74 % 1011,8 hPa 0,0 l/m 9,7 km/h SO 2,1 C 3,8 C 5,4 km/h
02.01.2018 22:00 6,1 C 78 % 1010,7 hPa 0,0 l/m 0,0 km/h NW 2,6 C 6,1 C 0,0 km/h
02.01.2018 23:00 7,0 C 79 % 1010,0 hPa 0,5 l/m 9,1 km/h SW 3,6 C 4,9 C 5,0 km/h
03.01.2018 00:00 7,8 C 82 % 1008,5 hPa 0,0 l/m 21,4 km/h SW 4,9 C -0,0 C 11,9 km/h
03.01.2018 01:00 8,6 C 84 % 1006,8 hPa 0,0 l/m 16,2 km/h S-SW 6,1 C 2,9 C 9,0 km/h
03.01.2018 02:00 10,3 C 84 % 1006,0 hPa 0,0 l/m 36,9 km/h SW 7,7 C -0,2 C 20,5 km/h
03.01.2018 03:00 11,2 C 82 % 1004,3 hPa 0,0 l/m 50,5 km/h W 8,2 C -0,5 C 28,1 km/h
03.01.2018 04:00 11,8 C 81 % 1001,5 hPa 0,0 l/m 49,9 km/h W-SW 8,6 C 0,5 C 27,7 km/h
03.01.2018 05:00 12,2 C 78 % 999,0 hPa 0,0 l/m 34,3 km/h W-SW 8,5 C 3,0 C 19,1 km/h
03.01.2018 06:00 12,6 C 78 % 996,9 hPa 0,0 l/m 24,0 km/h W 8,9 C 5,6 C 13,3 km/h
03.01.2018 07:00 12,7 C 80 % 995,9 hPa 0,0 l/m 26,6 km/h W 9,3 C 5,1 C 14,8 km/h
03.01.2018 08:00 11,8 C 84 % 995,4 hPa 0,5 l/m 27,9 km/h N-NW 9,2 C 3,6 C 15,5 km/h
03.01.2018 09:00 9,0 C 85 % 996,3 hPa 3,6 l/m 11,0 km/h W-NW 6,6 C 5,9 C 6,1 km/h
03.01.2018 10:00 8,4 C 83 % 998,4 hPa 0,5 l/m 30,5 km/h W-NW 5,7 C -1,7 C 16,9 km/h
03.01.2018 11:00 6,1 C 84 % 1001,2 hPa 1,0 l/m 4,5 km/h W 3,6 C 6,1 C 2,5 km/h
03.01.2018 12:00 7,1 C 81 % 1003,3 hPa 0,0 l/m 16,8 km/h W 4,1 C 0,8 C 9,4 km/h
03.01.2018 13:00 9,3 C 70 % 1003,9 hPa 0,0 l/m 8,4 km/h N 4,1 C 7,8 C 4,7 km/h
03.01.2018 14:00 11,8 C 54 % 1004,9 hPa 0,0 l/m 9,1 km/h W 2,8 C 10,1 C 5,0 km/h
03.01.2018 15:00 10,4 C 58 % 1005,4 hPa 0,0 l/m 20,7 km/h W 2,5 C 3,6 C 11,5 km/h
03.01.2018 16:00 8,2 C 65 % 1006,6 hPa 0,0 l/m 18,8 km/h SW 2,0 C 1,4 C 10,4 km/h
03.01.2018 17:00 6,4 C 78 % 1007,3 hPa 0,0 l/m 22,7 km/h SW 2,8 C -2,3 C 12,6 km/h
03.01.2018 18:00 6,8 C 77 % 1007,1 hPa 0,0 l/m 25,3 km/h W-SW 3,1 C -2,6 C 14,0 km/h
03.01.2018 19:00 6,8 C 75 % 1006,9 hPa 0,0 l/m 12,3 km/h W 2,7 C 2,7 C 6,8 km/h
03.01.2018 20:00 6,6 C 78 % 1007,1 hPa 0,0 l/m 22,7 km/h W-SW 3,0 C -2,1 C 12,6 km/h
03.01.2018 21:00 7,3 C 76 % 1007,2 hPa 0,0 l/m 25,3 km/h SW 3,4 C -1,9 C 14,0 km/h
03.01.2018 22:00 7,3 C 78 % 1007,1 hPa 0,0 l/m 22,7 km/h SW 3,7 C -1,1 C 12,6 km/h
03.01.2018 23:00 6,6 C 81 % 1006,8 hPa 0,0 l/m 16,2 km/h SW 3,6 C 0,5 C 9,0 km/h
04.01.2018 00:00 7,2 C 80 % 1006,7 hPa 0,0 l/m 20,1 km/h S-SW 4,0 C -0,4 C 11,2 km/h
04.01.2018 01:00 7,2 C 79 % 1005,9 hPa 0,0 l/m 17,5 km/h SW 3,8 C 0,6 C 9,7 km/h
04.01.2018 02:00 5,8 C 84 % 1006,5 hPa 0,0 l/m 23,3 km/h SW 3,3 C -3,3 C 13,0 km/h
04.01.2018 03:00 4,9 C 85 % 1005,2 hPa 0,5 l/m 0,0 km/h W 2,6 C 4,9 C 0,0 km/h
04.01.2018 04:00 6,3 C 83 % 1004,6 hPa 0,0 l/m 8,4 km/h W-SW 3,6 C 4,7 C 4,7 km/h
04.01.2018 05:00 6,9 C 82 % 1003,8 hPa 0,0 l/m 24,0 km/h SW 4,0 C -2,1 C 13,3 km/h
04.01.2018 06:00 7,4 C 83 % 1003,2 hPa 0,0 l/m 27,9 km/h S-SW 4,7 C -2,5 C 15,5 km/h
04.01.2018 07:00 8,1 C 83 % 1002,6 hPa 0,0 l/m 25,9 km/h S 5,4 C -1,0 C 14,4 km/h
04.01.2018 08:00 8,3 C 83 % 1001,7 hPa 0,0 l/m 5,8 km/h W-SW 5,6 C 8,3 C 3,2 km/h
04.01.2018 09:00 9,3 C 83 % 1000,6 hPa 0,0 l/m 21,4 km/h S 6,6 C 1,9 C 11,9 km/h
04.01.2018 10:00 9,4 C 85 % 1000,2 hPa 0,0 l/m 22,0 km/h W-SW 7,0 C 1,9 C 12,2 km/h
04.01.2018 11:00 10,9 C 83 % 999,3 hPa 0,5 l/m 33,7 km/h W-SW 8,1 C 1,2 C 18,7 km/h
04.01.2018 12:00 11,7 C 83 % 998,9 hPa 0,0 l/m 29,2 km/h SW 8,9 C 3,2 C 16,2 km/h
04.01.2018 13:00 12,1 C 84 % 998,7 hPa 0,0 l/m 20,7 km/h W-SW 9,5 C 5,8 C 11,5 km/h
04.01.2018 14:00 12,1 C 83 % 998,8 hPa 0,5 l/m 31,1 km/h S-SW 9,3 C 3,4 C 17,3 km/h
04.01.2018 15:00 11,8 C 80 % 999,1 hPa 0,5 l/m 29,2 km/h W-SW 8,5 C 3,3 C 16,2 km/h
04.01.2018 16:00 11,6 C 79 % 999,0 hPa 0,5 l/m 49,2 km/h SW 8,1 C 0,2 C 27,4 km/h
04.01.2018 17:00 11,7 C 82 % 999,1 hPa 0,5 l/m 15,6 km/h W 8,7 C 7,0 C 8,6 km/h
04.01.2018 18:00 11,9 C 84 % 998,8 hPa 0,0 l/m 27,9 km/h W 9,3 C 3,8 C 15,5 km/h
04.01.2018 19:00 12,6 C 85 % 998,4 hPa 0,5 l/m 13,0 km/h SW 10,1 C 9,1 C 7,2 km/h
04.01.2018 20:00 12,0 C 84 % 998,6 hPa 0,0 l/m 18,1 km/h S-SW 9,4 C 6,5 C 10,1 km/h
04.01.2018 21:00 12,6 C 84 % 998,9 hPa 0,5 l/m 20,1 km/h NW 10,0 C 6,6 C 11,2 km/h
04.01.2018 22:00 10,2 C 84 % 1001,1 hPa 0,5 l/m 18,1 km/h W-SW 7,6 C 4,2 C 10,1 km/h
04.01.2018 23:00 9,3 C 85 % 1002,1 hPa 0,0 l/m 3,2 km/h SO 6,9 C 9,3 C 1,8 km/h
05.01.2018 00:00 8,8 C 85 % 1002,3 hPa 0,0 l/m 0,0 km/h SO 6,4 C 8,8 C 0,0 km/h
05.01.2018 01:00 8,5 C 85 % 1002,3 hPa 0,0 l/m 0,0 km/h S-SW 6,1 C 8,5 C 0,0 km/h
05.01.2018 02:00 7,9 C 86 % 1003,4 hPa 0,0 l/m 0,0 km/h S-SW 5,7 C 7,9 C 0,0 km/h
05.01.2018 03:00 8,1 C 85 % 1003,1 hPa 0,0 l/m 0,0 km/h S-SW 5,7 C 8,1 C 0,0 km/h
05.01.2018 04:00 9,7 C 81 % 1002,8 hPa 0,0 l/m 27,2 km/h SW 6,6 C 0,9 C 15,1 km/h
05.01.2018 05:00 9,9 C 82 % 1002,5 hPa 0,0 l/m 19,4 km/h W-SW 7,0 C 3,4 C 10,8 km/h
05.01.2018 06:00 10,1 C 80 % 1001,9 hPa 0,0 l/m 4,5 km/h SW 6,8 C 10,1 C 2,5 km/h
05.01.2018 07:00 10,2 C 78 % 1001,4 hPa 0,0 l/m 0,0 km/h S-SW 6,5 C 10,2 C 0,0 km/h
05.01.2018 08:00 10,5 C 79 % 1000,9 hPa 0,0 l/m 11,7 km/h W-SW 7,0 C 7,2 C 6,5 km/h
05.01.2018 09:00 11,2 C 77 % 1000,6 hPa 0,0 l/m 0,0 km/h S-SW 7,3 C 11,2 C 0,0 km/h
05.01.2018 10:00 14,6 C 68 % 999,9 hPa 0,0 l/m 11,0 km/h W-SW 8,8 C 12,2 C 6,1 km/h
05.01.2018 11:00 14,5 C 64 % 999,0 hPa 0,0 l/m 0,0 km/h W 7,8 C 14,5 C 0,0 km/h
05.01.2018 12:00 12,9 C 66 % 998,8 hPa 0,0 l/m 3,2 km/h W-SW 6,7 C 12,9 C 1,8 km/h
05.01.2018 13:00 12,6 C 74 % 998,8 hPa 0,0 l/m 24,0 km/h SW 8,1 C 5,6 C 13,3 km/h
05.01.2018 14:00 12,9 C 77 % 998,7 hPa 0,0 l/m 24,0 km/h W-SW 9,0 C 6,0 C 13,3 km/h
05.01.2018 15:00 13,1 C 76 % 999,1 hPa 0,0 l/m 22,0 km/h W 9,0 C 6,8 C 12,2 km/h
05.01.2018 16:00 10,9 C 84 % 999,9 hPa 0,5 l/m 0,0 km/h N 8,3 C 10,9 C 0,0 km/h
05.01.2018 17:00 9,0 C 85 % 1001,0 hPa 2,6 l/m 0,0 km/h SO 6,6 C 9,0 C 0,0 km/h
05.01.2018 18:00 8,7 C 85 % 1001,2 hPa 2,1 l/m 0,0 km/h W-SW 6,3 C 8,7 C 0,0 km/h
05.01.2018 19:00 8,8 C 84 % 1002,0 hPa 0,5 l/m 25,3 km/h S 6,2 C 0,1 C 14,0 km/h
05.01.2018 20:00 8,4 C 81 % 1002,6 hPa 0,5 l/m 0,0 km/h W-SW 5,3 C 8,4 C 0,0 km/h
05.01.2018 21:00 8,1 C 81 % 1002,9 hPa 0,5 l/m 0,0 km/h W-SW 5,0 C 8,1 C 0,0 km/h
05.01.2018 22:00 7,8 C 82 % 1003,4 hPa 0,0 l/m 0,0 km/h W-SW 4,9 C 7,8 C 0,0 km/h
05.01.2018 23:00 7,6 C 81 % 1003,8 hPa 0,0 l/m 0,0 km/h SO 4,6 C 7,6 C 0,0 km/h
06.01.2018 00:00 7,5 C 79 % 1004,1 hPa 0,5 l/m 0,0 km/h SO 4,1 C 7,5 C 0,0 km/h
06.01.2018 01:00 7,2 C 79 % 1003,8 hPa 0,0 l/m 0,0 km/h SO 3,8 C 7,2 C 0,0 km/h
06.01.2018 02:00 7,0 C 78 % 1003,6 hPa 0,0 l/m 0,0 km/h SO 3,4 C 7,0 C 0,0 km/h
06.01.2018 03:00 6,9 C 77 % 1003,1 hPa 0,0 l/m 0,0 km/h SO 3,2 C 6,9 C 0,0 km/h
06.01.2018 04:00 6,3 C 77 % 1002,7 hPa 0,0 l/m 0,0 km/h SO 2,6 C 6,3 C 0,0 km/h
06.01.2018 05:00 6,4 C 76 % 1002,6 hPa 0,0 l/m 0,0 km/h SO 2,5 C 6,4 C 0,0 km/h
06.01.2018 06:00 6,4 C 75 % 1002,6 hPa 0,0 l/m 0,0 km/h O-SO 2,3 C 6,4 C 0,0 km/h
06.01.2018 07:00 6,4 C 74 % 1002,7 hPa 0,0 l/m 0,0 km/h O-SO 2,1 C 6,4 C 0,0 km/h
06.01.2018 08:00 6,5 C 74 % 1003,5 hPa 0,0 l/m 0,0 km/h S 2,2 C 6,5 C 0,0 km/h
06.01.2018 09:00 7,9 C 72 % 1003,6 hPa 0,0 l/m 0,0 km/h NO 3,2 C 7,9 C 0,0 km/h
06.01.2018 10:00 12,9 C 84 % 1003,9 hPa 0,0 l/m 0,0 km/h SO 10,3 C 12,9 C 0,0 km/h
06.01.2018 11:00 14,6 C 76 % 1003,8 hPa 0,0 l/m 6,5 km/h W 10,4 C 14,6 C 3,6 km/h
06.01.2018 12:00 15,9 C 69 % 1003,1 hPa 0,0 l/m 0,0 km/h W-NW 10,2 C 15,9 C 0,0 km/h
06.01.2018 13:00 14,5 C 68 % 1003,2 hPa 0,0 l/m 0,0 km/h W 8,7 C 14,5 C 0,0 km/h
06.01.2018 14:00 16,1 C 66 % 1003,5 hPa 0,0 l/m 0,0 km/h W 9,7 C 16,1 C 0,0 km/h
06.01.2018 15:00 11,3 C 74 % 1004,2 hPa 0,0 l/m 0,0 km/h W 6,8 C 11,3 C 0,0 km/h
06.01.2018 16:00 8,3 C 80 % 1004,3 hPa 0,0 l/m 0,0 km/h W 5,1 C 8,3 C 0,0 km/h
06.01.2018 17:00 5,9 C 84 % 1005,1 hPa 0,0 l/m 0,0 km/h W-SW 3,4 C 5,9 C 0,0 km/h
06.01.2018 18:00 4,9 C 85 % 1005,6 hPa 0,0 l/m 0,0 km/h S-SW 2,6 C 4,9 C 0,0 km/h
06.01.2018 19:00 6,1 C 85 % 1005,9 hPa 0,0 l/m 0,0 km/h S-SW 3,8 C 6,1 C 0,0 km/h
06.01.2018 20:00 6,4 C 84 % 1006,7 hPa 0,0 l/m 0,0 km/h S 3,9 C 6,4 C 0,0 km/h
06.01.2018 21:00 6,7 C 84 % 1007,3 hPa 0,0 l/m 0,0 km/h SO 4,2 C 6,7 C 0,0 km/h
06.01.2018 22:00 6,9 C 83 % 1007,8 hPa 0,0 l/m 0,0 km/h SO 4,2 C 6,9 C 0,0 km/h
06.01.2018 23:00 7,0 C 83 % 1008,4 hPa 0,0 l/m 0,0 km/h SO 4,3 C 7,0 C 0,0 km/h
07.01.2018 00:00 6,8 C 83 % 1008,5 hPa 0,0 l/m 0,0 km/h SO 4,1 C 6,8 C 0,0 km/h
07.01.2018 01:00 6,1 C 83 % 1008,9 hPa 0,0 l/m 0,0 km/h SO 3,4 C 6,1 C 0,0 km/h
07.01.2018 02:00 5,3 C 83 % 1009,7 hPa 0,0 l/m 0,0 km/h SO 2,7 C 5,3 C 0,0 km/h
07.01.2018 03:00 5,1 C 83 % 1009,8 hPa 0,0 l/m 0,0 km/h NO 2,5 C 5,1 C 0,0 km/h
07.01.2018 04:00 4,6 C 83 % 1009,8 hPa 0,0 l/m 0,0 km/h O-NO 2,0 C 4,6 C 0,0 km/h
07.01.2018 05:00 4,6 C 82 % 1009,9 hPa 0,0 l/m 0,0 km/h NO 1,8 C 4,6 C 0,0 km/h
07.01.2018 06:00 4,2 C 82 % 1010,0 hPa 0,0 l/m 0,0 km/h NO 1,4 C 4,2 C 0,0 km/h
07.01.2018 07:00 3,5 C 82 % 1010,7 hPa 0,0 l/m 0,0 km/h NO 0,7 C 3,5 C 0,0 km/h
07.01.2018 08:00 3,3 C 81 % 1011,3 hPa 0,0 l/m 0,0 km/h NO 0,4 C 3,3 C 0,0 km/h
07.01.2018 09:00 4,9 C 80 % 1011,8 hPa 0,0 l/m 0,0 km/h O-NO 1,7 C 4,9 C 0,0 km/h
07.01.2018 10:00 7,2 C 81 % 1012,3 hPa 0,0 l/m 0,0 km/h O-NO 4,2 C 7,2 C 0,0 km/h
07.01.2018 11:00 8,1 C 83 % 1011,7 hPa 0,0 l/m 0,0 km/h SO 5,4 C 8,1 C 0,0 km/h
07.01.2018 12:00 9,5 C 85 % 1011,6 hPa 0,0 l/m 0,0 km/h S-SW 7,1 C 9,5 C 0,0 km/h
07.01.2018 13:00 9,8 C 85 % 1011,7 hPa 0,0 l/m 0,0 km/h S-SO 7,4 C 9,8 C 0,0 km/h
07.01.2018 14:00 9,0 C 84 % 1011,5 hPa 0,0 l/m 0,0 km/h S 6,4 C 9,0 C 0,0 km/h
07.01.2018 15:00 8,3 C 85 % 1011,9 hPa 0,0 l/m 0,0 km/h N-NO 5,9 C 8,3 C 0,0 km/h
07.01.2018 16:00 7,2 C 84 % 1012,4 hPa 0,0 l/m 0,0 km/h N-NO 4,7 C 7,2 C 0,0 km/h
07.01.2018 17:00 5,3 C 85 % 1013,1 hPa 0,0 l/m 0,0 km/h N-NO 3,0 C 5,3 C 0,0 km/h
07.01.2018 18:00 3,8 C 86 % 1013,4 hPa 0,0 l/m 0,0 km/h N-NO 1,7 C 3,8 C 0,0 km/h
07.01.2018 19:00 2,9 C 86 % 1014,1 hPa 0,0 l/m 0,0 km/h N-NO 0,8 C 2,9 C 0,0 km/h
07.01.2018 20:00 2,6 C 86 % 1014,8 hPa 0,0 l/m 0,0 km/h O-SO 0,5 C 2,6 C 0,0 km/h
07.01.2018 21:00 1,9 C 86 % 1015,1 hPa 0,0 l/m 0,0 km/h O-SO -0,2 C 1,9 C 0,0 km/h
07.01.2018 22:00 0,7 C 85 % 1015,4 hPa 0,0 l/m 0,0 km/h O-SO -1,5 C 0,7 C 0,0 km/h
07.01.2018 23:00 0,5 C 85 % 1015,5 hPa 0,0 l/m 0,0 km/h O-SO -1,7 C 0,5 C 0,0 km/h
Min-Datum _ 07.01.18 03.01.18 03.01.18 - 01.01.18 - 07.01.18 02.01.18 01.01.18
_ Min-Zeit 23:53 14:53 08:53 - 14:53 - 23:53 04:53 14:53
Minimum _ 0,5 C 54 % 995,4 hPa - 0,0 km/h - -1,7 C -7,2 C 0,0 km/h
Max-Datum _ 06.01.18 05.01.18 02.01.18 03.01.18 03.01.18 - 06.01.18 06.01.18 03.01.18
_ Max-Zeit 14:53 02:53 10:53 09:53 03:53 - 11:53 14:53 03:53
Maximum _ 16,1 C 86 % 1015,9 hPa 3,6 l/m 50,5 km/h
W
- 10,4 C 16,1 C 28,1 km/h
W
Durchschnitt _ 8,2 C 79 % 1005,9 hPa #20,2 l/m 12,7 km/h W-SW 4,7 C 4,2 C 7,1 km/h
www.sexauwetter.de